Time;durP1;ratioP1;P1;durP2;ratioP2;P2;SDS_P1;SDS_P2;PMS_P1;PMS_P2;Temp;Humidity;BMP_temperature;BMP_pressure;BME280_temperature;BME280_humidity;BME280_pressure;Samples;Min_cycle;Max_cycle;Signal;HPM_P1;HPM_P2
2021/10/19 00:00:55;;;;;;;9.90;8.53;;;;;;;12.71;52.01;100396.94;5070979;23;20228;-80
2021/10/19 00:03:23;;;;;;;9.80;8.80;;;;;;;12.80;52.06;100419.84;5051906;28;20241;-80
2021/10/19 00:06:06;;;;;;;9.53;8.00;;;;;;;12.61;51.90;100424.25;5079242;23;20228;-79
2021/10/19 00:08:33;;;;;;;9.20;8.13;;;;;;;12.67;52.37;100436.03;5083814;23;20234;-80
2021/10/19 00:11:00;;;;;;;10.43;8.73;;;;;;;12.69;51.95;100439.34;5073910;22;20228;-80
2021/10/19 00:13:27;;;;;;;9.07;8.17;;;;;;;12.57;51.94;100428.44;5039091;28;20234;-81
2021/10/19 00:15:55;;;;;;;10.23;8.23;;;;;;;12.64;51.58;100440.00;5055614;28;20200;-80
2021/10/19 00:18:24;;;;;;;10.23;8.37;;;;;;;12.51;50.77;100444.56;5059394;23;20244;-80
2021/10/19 00:20:52;;;;;;;8.63;7.73;;;;;;;12.49;52.05;100431.38;5020353;28;20249;-79
2021/10/19 00:23:22;;;;;;;9.47;8.40;;;;;;;12.54;52.05;100442.31;5052310;23;20241;-80
2021/10/19 00:25:51;;;;;;;8.87;7.83;;;;;;;12.34;51.92;100407.44;5037862;28;20230;-80
2021/10/19 00:28:17;;;;;;;9.17;7.93;;;;;;;12.46;51.69;100421.00;5049140;23;20272;-80
2021/10/19 00:31:06;;;;;;;10.00;8.63;;;;;;;12.42;52.20;100425.16;5081898;23;20238;-79
2021/10/19 00:33:49;;;;;;;9.73;7.80;;;;;;;12.37;52.15;100427.66;5095033;23;20229;-81
2021/10/19 00:36:44;;;;;;;9.30;8.30;;;;;;;12.29;50.71;100434.09;5067053;23;21001;-80
2021/10/19 00:39:17;;;;;;;9.93;7.77;;;;;;;12.08;51.50;100425.50;5064704;22;20228;-80
2021/10/19 00:41:49;;;;;;;9.80;7.93;;;;;;;12.16;52.17;100446.75;5074776;23;20225;-81
2021/10/19 00:44:16;;;;;;;10.07;8.23;;;;;;;12.14;51.61;100446.94;5038680;28;20288;-80
2021/10/19 00:46:46;;;;;;;9.57;8.40;;;;;;;12.09;51.84;100432.50;5056056;28;20186;-80
2021/10/19 00:49:36;;;;;;;10.17;7.77;;;;;;;12.13;52.16;100434.53;5064301;23;20244;-81
2021/10/19 00:52:26;;;;;;;10.20;7.87;;;;;;;12.13;51.91;100433.75;5037189;28;20210;-80
2021/10/19 00:54:54;;;;;;;10.27;8.07;;;;;;;12.12;52.11;100432.91;5058754;23;20210;-81
2021/10/19 00:57:23;;;;;;;8.80;7.90;;;;;;;12.01;51.42;100425.50;5028054;23;20261;-80
2021/10/19 00:59:49;;;;;;;10.83;8.00;;;;;;;11.99;52.00;100418.69;5076410;23;20233;-80
2021/10/19 01:02:18;;;;;;;10.13;8.33;;;;;;;11.81;52.47;100403.22;5038363;28;20221;-80
2021/10/19 01:04:47;;;;;;;9.60;8.60;;;;;;;11.96;52.30;100425.28;5073817;28;20221;-79
2021/10/19 01:07:59;;;;;;;8.97;7.67;;;;;;;11.98;51.72;100428.59;5073060;28;20185;-80
2021/10/19 01:10:28;;;;;;;9.60;8.10;;;;;;;11.75;52.63;100422.84;5093020;23;20305;-80
2021/10/19 01:12:56;;;;;;;9.50;8.47;;;;;;;11.83;52.68;100430.69;5071449;22;20232;-80
2021/10/19 01:15:27;;;;;;;9.27;8.13;;;;;;;11.83;52.40;100417.25;5072493;28;20185;-79
2021/10/19 01:17:53;;;;;;;8.83;7.93;;;;;;;11.80;52.63;100404.25;5068848;23;20728;-80
2021/10/19 01:20:29;;;;;;;9.47;8.27;;;;;;;11.88;51.94;100412.91;5063355;23;20587;-79
2021/10/19 01:23:18;;;;;;;9.77;7.83;;;;;;;11.84;52.19;100417.06;5084483;23;20360;-80
2021/10/19 01:26:12;;;;;;;10.13;8.23;;;;;;;11.89;52.48;100408.38;5077439;28;20216;-81
2021/10/19 01:28:45;;;;;;;10.40;8.70;;;;;;;11.90;52.30;100397.41;5098377;23;20239;-80
2021/10/19 01:31:31;;;;;;;9.60;8.37;;;;;;;11.87;52.67;100386.28;5070324;23;20294;-79
2021/10/19 01:33:58;;;;;;;9.97;7.97;;;;;;;11.90;52.71;100388.53;5097280;23;20647;-80
2021/10/19 01:36:25;;;;;;;10.10;8.53;;;;;;;11.87;52.60;100387.09;5075838;28;20292;-80
2021/10/19 01:38:55;;;;;;;8.93;8.03;;;;;;;11.97;52.71;100399.28;5087444;22;20251;-80
2021/10/19 01:41:27;;;;;;;9.67;8.57;;;;;;;11.96;52.79;100401.13;5061619;23;20573;-80
2021/10/19 01:44:09;;;;;;;9.83;8.17;;;;;;;11.97;53.10;100402.78;5072192;28;20209;-80
2021/10/19 01:46:36;;;;;;;10.37;8.60;;;;;;;12.01;52.91;100405.88;5073641;28;20205;-80
2021/10/19 01:49:03;;;;;;;9.67;8.63;;;;;;;11.89;53.25;100389.59;5072975;28;20308;-80
2021/10/19 01:51:37;;;;;;;9.77;8.70;;;;;;;11.94;52.93;100397.00;5055486;28;20702;-80
2021/10/19 01:54:09;;;;;;;9.77;8.23;;;;;;;11.82;53.18;100378.00;5057277;28;20178;-80
2021/10/19 01:56:44;;;;;;;8.67;7.77;;;;;;;11.89;53.01;100387.72;5110694;23;20216;-80
2021/10/19 01:59:10;;;;;;;8.43;7.67;;;;;;;11.87;53.10;100395.16;5102374;23;20229;-81
2021/10/19 02:01:39;;;;;;;9.23;8.33;;;;;;;11.93;52.53;100396.19;5063454;23;20545;-80
2021/10/19 02:04:06;;;;;;;9.63;8.10;;;;;;;11.90;53.24;100391.22;5018344;28;20244;-80
2021/10/19 02:06:34;;;;;;;9.10;8.00;;;;;;;12.00;52.76;100390.78;5053253;28;20191;-81
2021/10/19 02:09:03;;;;;;;8.87;7.97;;;;;;;11.87;52.90;100364.78;5060307;23;20238;-81
2021/10/19 02:11:29;;;;;;;8.60;7.73;;;;;;;11.90;52.73;100361.69;5088436;23;20248;-80
2021/10/19 02:13:58;;;;;;;8.57;7.67;;;;;;;11.96;52.72;100374.28;5083351;22;20228;-80
2021/10/19 02:16:39;;;;;;;10.37;8.03;;;;;;;11.89;53.11;100354.69;5033993;23;20227;-80
2021/10/19 02:19:12;;;;;;;8.60;7.50;;;;;;;11.91;52.55;100355.28;5113250;22;20247;-80
2021/10/19 02:21:52;;;;;;;9.00;7.53;;;;;;;11.91;52.82;100356.09;5059552;28;20184;-80
2021/10/19 02:24:40;;;;;;;9.20;7.70;;;;;;;11.88;52.09;100353.84;5075391;28;20252;-80
2021/10/19 02:27:07;;;;;;;9.17;7.13;;;;;;;11.84;53.02;100354.47;5080997;23;20233;-80
2021/10/19 02:29:35;;;;;;;9.47;7.43;;;;;;;11.90;52.79;100354.44;5061180;23;20231;-80
2021/10/19 02:32:05;;;;;;;8.27;7.23;;;;;;;11.87;52.57;100362.94;5071390;23;20216;-80
2021/10/19 02:34:43;;;;;;;7.90;6.87;;;;;;;11.89;52.69;100363.56;5074823;28;20267;-80
2021/10/19 02:37:20;;;;;;;8.37;7.30;;;;;;;11.80;52.59;100369.38;5070520;23;20650;-80
2021/10/19 02:40:11;;;;;;;8.27;7.33;;;;;;;11.83;51.74;100366.25;5096751;22;20232;-79
2021/10/19 02:42:39;;;;;;;8.97;7.30;;;;;;;11.83;52.45;100361.72;5067538;28;20217;-79
2021/10/19 02:45:10;;;;;;;7.70;6.90;;;;;;;11.73;52.71;100347.88;5052750;28;20271;-81
2021/10/19 02:47:41;;;;;;;9.77;7.10;;;;;;;11.61;52.49;100370.19;5053416;28;20226;-80
2021/10/19 02:50:19;;;;;;;8.13;6.93;;;;;;;11.62;52.68;100372.63;5070773;23;20535;-79
2021/10/19 02:52:46;;;;;;;8.17;6.80;;;;;;;11.69;53.10;100372.66;5033546;28;20240;-80
2021/10/19 02:55:19;;;;;;;9.13;7.13;;;;;;;11.66;52.72;100383.81;5042681;23;20225;-80
2021/10/19 02:57:57;;;;;;;9.73;7.40;;;;;;;11.73;52.61;100365.84;5070791;28;20229;-79
2021/10/19 03:00:26;;;;;;;8.93;6.83;;;;;;;11.63;53.15;100355.50;5012920;28;20226;-80
2021/10/19 03:02:58;;;;;;;7.60;6.80;;;;;;;11.66;52.30;100349.75;5043022;23;20278;-80
2021/10/19 03:05:36;;;;;;;7.37;6.67;;;;;;;11.62;52.90;100343.13;5051829;23;20263;-80
2021/10/19 03:08:25;;;;;;;8.17;6.83;;;;;;;11.67;52.74;100356.75;5106572;22;20225;-80
2021/10/19 03:10:56;;;;;;;7.73;6.70;;;;;;;11.63;52.94;100346.63;5066777;23;20224;-80
2021/10/19 03:13:31;;;;;;;7.73;6.17;;;;;;;11.65;53.11;100340.03;5081078;23;20251;-79
2021/10/19 03:16:13;;;;;;;7.93;6.70;;;;;;;11.59;53.00;100337.34;5110071;22;20217;-80
2021/10/19 03:19:01;;;;;;;8.13;6.43;;;;;;;11.59;52.76;100340.88;5069252;23;20233;-80
2021/10/19 03:21:41;;;;;;;7.23;6.53;;;;;;;11.61;53.15;100348.72;5064391;23;20228;-80
2021/10/19 03:24:34;;;;;;;8.23;6.87;;;;;;;11.52;53.23;100344.59;5102045;23;20220;-80
2021/10/19 03:27:01;;;;;;;8.87;6.57;;;;;;;11.39;53.20;100332.81;5027485;22;2168240;-80
2021/10/19 03:29:28;;;;;;;10.33;6.80;;;;;;;11.56;53.15;100340.47;5063560;23;20845;-79
2021/10/19 03:31:57;;;;;;;8.67;7.00;;;;;;;11.53;53.17;100339.00;5061177;23;20978;-80
2021/10/19 03:34:44;;;;;;;9.97;6.90;;;;;;;11.43;53.06;100346.69;5100791;23;20247;-80
2021/10/19 03:40:41;;;;;;;9.43;7.07;;;;;;;11.39;52.73;100342.72;5056975;23;20245;-80
2021/10/19 03:43:08;;;;;;;8.97;7.07;;;;;;;11.31;53.53;100342.94;5046880;23;20280;-80
2021/10/19 03:45:35;;;;;;;7.60;6.70;;;;;;;11.33;53.48;100357.81;5078202;23;20224;-80
2021/10/19 03:48:01;;;;;;;7.43;6.70;;;;;;;11.15;53.18;100352.22;5077093;28;20268;-80
2021/10/19 03:50:31;;;;;;;9.27;7.40;;;;;;;11.14;53.38;100352.44;5094749;28;20213;-80
2021/10/19 03:53:00;;;;;;;7.77;6.60;;;;;;;11.22;53.26;100354.91;5077612;28;20217;-80
2021/10/19 03:55:27;;;;;;;7.87;7.00;;;;;;;11.09;52.43;100336.16;5094006;28;20251;-80
2021/10/19 03:57:54;;;;;;;7.90;7.10;;;;;;;11.16;52.91;100359.25;5077291;28;20280;-80
2021/10/19 04:00:25;;;;;;;9.77;8.50;;;;;;;11.10;53.24;100356.56;5061538;28;20192;-80
2021/10/19 04:02:52;;;;;;;11.57;9.03;;;;;;;11.04;53.72;100350.16;5101299;22;20244;-80
2021/10/19 04:05:20;;;;;;;9.90;8.27;;;;;;;11.11;53.08;100355.53;5077146;28;20304;-79
2021/10/19 04:07:50;;;;;;;10.63;8.80;;;;;;;11.09;53.25;100346.88;5077324;23;20237;-80
2021/10/19 04:10:37;;;;;;;9.17;8.00;;;;;;;10.98;53.15;100334.88;5075802;23;20229;-80
2021/10/19 04:13:56;;;;;;;11.37;7.97;;;;;;;11.08;53.96;100345.22;5087486;22;20224;-80
2021/10/19 04:16:27;;;;;;;7.63;6.90;;;;;;;11.12;53.34;100346.44;5039507;23;20220;-80
2021/10/19 04:18:56;;;;;;;7.67;6.87;;;;;;;11.11;53.27;100342.94;5050437;23;20230;-80
2021/10/19 04:21:23;;;;;;;9.60;7.27;;;;;;;11.12;52.75;100341.09;5036187;23;20216;-79
2021/10/19 04:24:24;;;;;;;9.93;7.73;;;;;;;11.10;53.60;100345.84;5048539;28;20236;-80
2021/10/19 04:26:50;;;;;;;7.73;7.00;;;;;;;11.14;53.56;100358.63;5093068;28;20208;-80
2021/10/19 04:29:17;;;;;;;9.03;8.00;;;;;;;11.08;53.56;100348.72;5095296;28;20205;-80
2021/10/19 04:31:50;;;;;;;10.10;7.70;;;;;;;11.12;53.45;100358.00;5076661;28;20213;-79
2021/10/19 04:34:18;;;;;;;10.47;8.37;;;;;;;10.95;53.53;100344.19;5094299;23;20232;-79
2021/10/19 04:36:53;;;;;;;9.03;8.00;;;;;;;11.02;53.12;100353.03;5062729;28;20276;-80
2021/10/19 04:39:31;;;;;;;11.77;8.10;;;;;;;10.96;53.74;100359.22;5102298;22;20284;-80
2021/10/19 04:42:15;;;;;;;8.90;7.47;;;;;;;10.79;52.90;100376.72;5183555;23;20165;-80
2021/10/19 04:44:48;;;;;;;8.63;7.73;;;;;;;10.86;53.11;100374.91;5063640;23;20198;-80
2021/10/19 04:47:36;;;;;;;10.90;7.93;;;;;;;10.64;53.50;100359.19;5074462;23;20267;-80
2021/10/19 04:50:08;;;;;;;8.80;7.67;;;;;;;10.66;53.42;100373.19;5061672;23;20240;-80
2021/10/19 04:52:37;;;;;;;9.27;7.23;;;;;;;10.64;53.76;100361.88;5062699;23;20232;-80
2021/10/19 04:55:28;;;;;;;9.13;7.63;;;;;;;10.72;53.75;100367.03;5055789;23;20292;-80
2021/10/19 04:57:58;;;;;;;11.00;7.57;;;;;;;10.65;52.91;100363.50;5081775;23;20224;-80
2021/10/19 05:00:26;;;;;;;7.47;6.67;;;;;;;10.66;53.39;100373.19;5083464;23;20220;-80
2021/10/19 05:03:06;;;;;;;7.87;6.63;;;;;;;10.54;53.96;100365.72;5099018;23;20311;-80
2021/10/19 05:05:43;;;;;;;7.37;6.63;;;;;;;10.58;53.50;100380.41;5068730;23;20245;-80
2021/10/19 05:08:25;;;;;;;9.13;6.83;;;;;;;10.52;53.68;100378.50;5077027;23;20224;-80
2021/10/19 05:10:58;;;;;;;11.43;8.93;;;;;;;10.43;53.00;100366.31;5060175;28;20288;-80
2021/10/19 05:13:29;;;;;;;9.70;8.67;;;;;;;10.43;53.95;100370.84;5092614;28;20228;-79
2021/10/19 05:15:55;;;;;;;13.50;9.83;;;;;;;10.38;53.52;100362.59;5098633;23;20312;-80
2021/10/19 05:18:26;;;;;;;13.53;9.80;;;;;;;10.35;53.47;100358.47;5092088;28;20229;-79
2021/10/19 05:21:05;;;;;;;9.07;7.40;;;;;;;10.42;53.29;100371.88;5061198;28;20274;-79
2021/10/19 05:23:53;;;;;;;9.20;7.40;;;;;;;10.37;53.70;100369.78;5099056;22;20255;-79
2021/10/19 05:26:20;;;;;;;10.17;7.43;;;;;;;10.28;53.76;100359.44;5058306;28;20217;-80
2021/10/19 05:28:52;;;;;;;9.30;8.30;;;;;;;10.27;53.15;100374.69;5081258;23;20211;-80
2021/10/19 05:31:22;;;;;;;9.43;8.07;;;;;;;10.38;53.64;100365.25;5064564;23;20229;-80
2021/10/19 05:34:09;;;;;;;9.73;8.23;;;;;;;10.44;53.04;100370.66;5089732;23;20892;-81
2021/10/19 05:36:36;;;;;;;10.57;8.43;;;;;;;10.35;53.22;100374.53;5061623;23;20663;-79
2021/10/19 05:39:10;;;;;;;12.93;7.97;;;;;;;10.36;52.89;100388.75;5076284;28;20234;-81
2021/10/19 05:41:39;;;;;;;11.47;8.20;;;;;;;10.40;53.21;100385.50;5077840;28;20211;-82
2021/10/19 05:44:26;;;;;;;9.70;8.17;;;;;;;10.52;53.29;100375.00;5096501;23;20234;-81
2021/10/19 05:46:54;;;;;;;13.90;9.13;;;;;;;10.63;53.11;100362.88;5122525;23;20275;-79
2021/10/19 05:49:47;;;;;;;14.50;8.83;;;;;;;10.81;53.20;100379.22;5075634;23;20217;-79
2021/10/19 05:52:14;;;;;;;10.83;9.03;;;;;;;10.94;52.85;100363.16;5059772;23;20235;-79
2021/10/19 05:55:11;;;;;;;11.27;8.83;;;;;;;11.13;52.56;100373.06;5088456;23;20209;-79
2021/10/19 05:57:45;;;;;;;10.10;7.60;;;;;;;11.36;53.10;100378.03;5075363;28;20193;-79
2021/10/19 06:01:11;;;;;;;8.80;7.50;;;;;;;11.63;52.69;100393.09;5096257;23;20231;-79
2021/10/19 06:03:58;;;;;;;9.57;7.13;;;;;;;11.82;52.41;100399.50;5077212;23;20209;-79
2021/10/19 06:06:57;;;;;;;7.90;7.10;;;;;;;11.88;52.32;100380.69;5110110;22;20296;-78
2021/10/19 06:09:31;;;;;;;8.50;7.07;;;;;;;12.35;51.96;100406.41;5022454;23;20221;-81
2021/10/19 06:13:07;;;;;;;8.27;6.40;;;;;;;12.68;52.07;100405.44;5079055;22;20508;-81
2021/10/19 06:16:22;;;;;;;8.40;6.90;;;;;;;12.97;50.35;100394.06;5086459;23;20226;-79
2021/10/19 06:19:14;;;;;;;6.63;5.80;;;;;;;13.37;49.55;100410.00;5049633;23;20236;-79
2021/10/19 06:21:50;;;;;;;6.37;5.50;;;;;;;13.59;49.64;100406.69;5089228;23;20311;-80
2021/10/19 06:24:52;;;;;;;8.17;6.30;;;;;;;13.91;49.73;100414.69;5074364;23;20505;-79
2021/10/19 06:27:26;;;;;;;6.83;6.10;;;;;;;14.09;49.14;100414.72;5038179;23;20218;-79
2021/10/19 06:30:14;;;;;;;6.47;5.67;;;;;;;14.07;48.46;100389.88;5040443;23;20239;-79
2021/10/19 06:33:36;;;;;;;6.80;5.70;;;;;;;14.28;49.01;100432.53;5167152;23;20238;-79
2021/10/19 06:36:57;;;;;;;6.47;5.87;;;;;;;14.16;48.81;100415.47;5091374;22;20236;-79
2021/10/19 06:40:18;;;;;;;7.43;5.87;;;;;;;14.35;48.31;100422.50;5110232;22;20212;-79
2021/10/19 06:42:57;;;;;;;8.70;5.80;;;;;;;14.39;48.25;100409.44;5044881;28;20573;-80
2021/10/19 06:45:52;;;;;;;9.03;6.20;;;;;;;14.46;47.03;100404.81;5074283;23;20233;-80
2021/10/19 06:48:30;;;;;;;6.33;5.63;;;;;;;14.76;47.67;100423.69;5095179;22;20224;-78
2021/10/19 06:51:15;;;;;;;7.57;5.40;;;;;;;14.86;48.14;100413.19;5093733;23;20240;-79
2021/10/19 06:58:25;;;;;;;7.63;5.97;;;;;;;15.37;46.71;100409.94;5027046;23;20224;-78
2021/10/19 07:01:46;;;;;;;6.87;5.73;;;;;;;15.54;46.60;100418.25;5076995;23;20284;-79
2021/10/19 07:05:07;;;;;;;7.67;5.53;;;;;;;15.63;45.99;100414.13;5194889;22;20207;-79
2021/10/19 07:08:37;;;;;;;8.73;5.50;;;;;;;15.91;45.13;100425.03;5085597;22;20230;-79
2021/10/19 07:11:41;;;;;;;6.63;5.93;;;;;;;16.01;45.37;100416.34;5104192;22;20208;-79
2021/10/19 07:14:40;;;;;;;6.60;5.90;;;;;;;16.06;45.16;100428.09;5048312;23;20239;-79
2021/10/19 07:17:27;;;;;;;7.37;5.87;;;;;;;16.27;45.34;100423.97;5042428;28;20208;-79
2021/10/19 07:21:24;;;;;;;8.10;6.50;;;;;;;16.48;44.24;100420.63;5113682;22;20232;-79
2021/10/19 07:24:11;;;;;;;7.67;5.97;;;;;;;16.61;43.73;100406.88;5218871;22;20264;-79
2021/10/19 07:27:46;;;;;;;7.73;6.40;;;;;;;16.85;43.83;100410.31;5107445;23;20220;-79
2021/10/19 07:31:19;;;;;;;8.13;7.27;;;;;;;17.08;43.20;100407.50;5175202;22;20212;-78
2021/10/19 07:34:37;;;;;;;7.90;7.10;;;;;;;17.35;42.83;100413.13;5056471;23;20230;-79
2021/10/19 07:38:20;;;;;;;9.87;6.80;;;;;;;17.63;42.12;100427.72;5108748;23;20223;-78
2021/10/19 07:42:08;;;;;;;8.23;6.70;;;;;;;17.84;41.84;100421.53;5094858;23;20208;-78
2021/10/19 07:45:15;;;;;;;7.30;6.37;;;;;;;17.96;41.33;100425.78;5101977;23;20243;-78
2021/10/19 07:48:10;;;;;;;7.13;6.47;;;;;;;18.02;41.57;100426.69;5120501;22;20225;-78
2021/10/19 07:51:33;;;;;;;11.00;6.80;;;;;;;18.00;40.98;100399.00;5167444;22;20291;-78
2021/10/19 07:54:39;;;;;;;10.13;6.57;;;;;;;18.19;41.19;100405.78;5387529;23;20232;-80
2021/10/19 07:57:12;;;;;;;8.10;6.20;;;;;;;18.55;41.14;100428.78;5090738;28;20215;-79
2021/10/19 08:00:28;;;;;;;7.07;6.10;;;;;;;18.51;40.79;100416.78;5111244;22;20259;-78
2021/10/19 08:03:41;;;;;;;12.77;6.87;;;;;;;18.66;40.60;100416.19;5110596;22;20244;-78
2021/10/19 08:07:05;;;;;;;11.57;6.63;;;;;;;18.79;40.73;100415.78;5061261;23;20236;-79
2021/10/19 08:10:18;;;;;;;7.83;6.63;;;;;;;18.87;40.39;100410.72;5052985;28;20230;-79
2021/10/19 08:17:28;;;;;;;7.53;5.73;;;;;;;19.02;39.96;100425.53;5015634;28;20618;-79
2021/10/19 08:20:48;;;;;;;7.37;6.30;;;;;;;18.94;40.52;100415.13;5094483;22;20331;-79
2021/10/19 08:23:33;;;;;;;6.57;5.80;;;;;;;19.10;40.23;100411.47;5063977;23;20205;-79
2021/10/19 08:26:58;;;;;;;8.60;6.10;;;;;;;19.36;39.81;100424.25;5066072;23;20214;-78
2021/10/19 08:29:42;;;;;;;7.37;5.50;;;;;;;19.55;39.07;100430.16;5263492;22;20225;-78
2021/10/19 08:32:53;;;;;;;6.40;5.47;;;;;;;19.72;39.36;100434.38;5084435;23;20190;-78
2021/10/19 08:36:05;;;;;;;7.60;5.80;;;;;;;19.67;38.67;100403.59;5074813;23;20300;-79
2021/10/19 08:39:15;;;;;;;9.17;5.90;;;;;;;20.04;38.39;100419.91;5082082;23;20182;-79
2021/10/19 08:41:44;;;;;;;7.87;5.63;;;;;;;20.21;38.38;100406.94;5034167;28;20230;-79
2021/10/19 08:44:11;;;;;;;6.20;5.53;;;;;;;20.45;37.56;100408.19;5033786;28;20226;-79
2021/10/19 08:46:58;;;;;;;6.33;5.53;;;;;;;20.55;37.33;100401.97;5046859;23;20232;-79
2021/10/19 08:49:25;;;;;;;8.90;5.13;;;;;;;20.61;37.70;100411.78;5039322;28;20182;-79
2021/10/19 08:51:56;;;;;;;8.73;5.77;;;;;;;20.83;37.15;100423.28;5071644;28;20212;-80
2021/10/19 08:54:26;;;;;;;6.37;5.70;;;;;;;20.78;37.10;100426.00;5083327;23;20227;-80
2021/10/19 08:57:18;;;;;;;7.23;5.47;;;;;;;20.62;37.35;100432.50;5137183;23;20268;-79
2021/10/19 09:00:10;;;;;;;6.70;5.40;;;;;;;20.84;36.48;100435.00;5088452;23;20246;-79
2021/10/19 09:03:05;;;;;;;6.50;5.63;;;;;;;21.15;36.53;100427.75;5073239;23;20232;-79
2021/10/19 09:06:35;;;;;;;6.87;6.10;;;;;;;21.08;36.70;100428.81;5081227;23;20208;-79
2021/10/19 09:09:37;;;;;;;8.00;6.40;;;;;;;21.42;36.22;100428.34;5111735;22;20223;-80
2021/10/19 09:12:11;;;;;;;7.23;6.40;;;;;;;21.69;35.76;100420.72;5097170;28;20207;-82
2021/10/19 09:14:46;;;;;;;7.83;6.50;;;;;;;21.90;35.34;100424.22;5077750;23;20224;-81
2021/10/19 09:17:13;;;;;;;6.93;6.23;;;;;;;21.80;35.40;100413.31;5043192;28;20544;-87
2021/10/19 09:19:41;;;;;;;6.97;6.13;;;;;;;21.86;35.00;100398.59;5043945;28;20232;-86
2021/10/19 09:22:09;;;;;;;9.07;6.23;;;;;;;22.17;34.77;100407.56;5042116;28;20656;-88
2021/10/19 09:24:40;;;;;;;8.23;6.13;;;;;;;22.26;34.77;100411.34;5042331;28;20233;-88
2021/10/19 09:27:15;;;;;;;7.23;5.93;;;;;;;22.17;34.37;100419.28;5041960;28;20238;-88
2021/10/19 09:29:42;;;;;;;9.30;6.50;;;;;;;22.18;35.11;100415.47;5041953;28;20566;-88
2021/10/19 09:32:09;;;;;;;7.90;6.10;;;;;;;21.97;35.02;100410.34;5058035;28;20233;-88
2021/10/19 09:34:37;;;;;;;8.43;6.63;;;;;;;21.37;35.88;100412.78;5041949;28;20234;-88
2021/10/19 09:41:22;;;;;;;8.77;7.20;;;;;;;20.84;37.62;100415.94;5085586;23;20234;-79
2021/10/19 09:44:18;;;;;;;10.03;7.17;;;;;;;19.93;39.02;100419.00;5088810;22;20262;-80
2021/10/19 09:51:24;;;;;;;9.03;7.03;;;;;;;20.15;39.22;100421.59;5059149;22;20220;-79
2021/10/19 09:54:47;;;;;;;10.30;7.53;;;;;;;20.94;37.65;100433.16;5079061;23;20213;-79
2021/10/19 09:57:49;;;;;;;8.47;7.37;;;;;;;20.53;38.76;100420.47;5103654;22;20212;-79
2021/10/19 10:00:53;;;;;;;8.23;7.30;;;;;;;20.92;37.95;100418.97;5054998;23;20298;-79
2021/10/19 10:03:31;;;;;;;8.77;7.30;;;;;;;21.36;37.37;100403.00;5154504;23;20235;-80
2021/10/19 10:06:16;;;;;;;12.17;7.40;;;;;;;21.30;37.15;100420.44;5064102;28;20492;-81
2021/10/19 10:09:23;;;;;;;11.87;7.13;;;;;;;21.66;36.96;100412.25;5087323;23;20243;-83
2021/10/19 10:12:32;;;;;;;9.27;7.73;;;;;;;21.54;37.48;100407.09;5088605;22;20195;-79
2021/10/19 10:15:12;;;;;;;8.17;7.23;;;;;;;21.84;37.33;100411.69;5115750;22;20304;-81
2021/10/19 10:18:00;;;;;;;8.63;6.90;;;;;;;21.87;37.04;100397.50;5078072;28;20316;-87
2021/10/19 10:20:37;;;;;;;9.97;7.37;;;;;;;21.66;37.70;100393.16;5087701;28;20226;-81
2021/10/19 10:23:30;;;;;;;9.83;7.30;;;;;;;21.29;37.82;100405.16;5085095;28;20254;-81
2021/10/19 10:26:47;;;;;;;7.73;7.00;;;;;;;20.69;39.46;100396.84;5082149;23;20251;-83
2021/10/19 10:30:08;;;;;;;10.53;7.30;;;;;;;20.03;40.08;100400.03;5090693;22;20220;-80
2021/10/19 10:33:14;;;;;;;8.63;7.50;;;;;;;20.60;39.71;100396.53;5075253;23;20216;-78
2021/10/19 10:36:16;;;;;;;9.27;7.07;;;;;;;21.19;39.11;100386.06;5100874;23;20228;-80
2021/10/19 10:43:16;;;;;;;8.20;7.40;;;;;;;21.36;38.46;100381.19;5021686;28;20214;-83
2021/10/19 10:45:43;;;;;;;8.13;7.30;;;;;;;21.62;37.77;100387.44;5017480;28;20235;-86
2021/10/19 10:48:10;;;;;;;8.37;7.40;;;;;;;21.82;37.80;100381.16;4997427;28;20233;-89
2021/10/19 10:50:38;;;;;;;8.00;7.20;;;;;;;22.09;37.22;100370.75;4998389;28;20282;-85
2021/10/19 10:53:06;;;;;;;7.50;6.80;;;;;;;21.84;37.86;100392.59;4997843;28;20243;-86
2021/10/19 10:55:42;;;;;;;7.90;6.80;;;;;;;21.76;38.19;100384.97;5001052;28;20511;-87
2021/10/19 10:58:35;;;;;;;8.33;7.53;;;;;;;21.36;38.43;100374.94;5022250;28;20218;-86
2021/10/19 11:01:27;;;;;;;10.20;6.60;;;;;;;21.87;37.68;100365.59;5018332;28;20255;-90
2021/10/19 11:04:08;;;;;;;8.23;7.43;;;;;;;22.14;37.53;100369.91;4998192;28;20222;-89
2021/10/19 11:06:41;;;;;;;9.20;7.90;;;;;;;22.00;37.29;100360.69;4997490;28;20317;-88
2021/10/19 11:09:54;;;;;;;7.70;7.00;;;;;;;21.28;39.66;100361.81;5021695;28;20261;-81
2021/10/19 11:12:36;;;;;;;8.50;7.57;;;;;;;21.78;38.51;100352.81;5019764;28;20281;-88
2021/10/19 11:15:12;;;;;;;8.67;7.70;;;;;;;22.07;38.55;100353.03;5014169;28;20318;-88
2021/10/19 11:17:48;;;;;;;10.67;8.13;;;;;;;22.22;37.51;100342.88;4997994;28;20231;-88
2021/10/19 11:20:16;;;;;;;8.80;7.90;;;;;;;22.29;37.44;100340.66;5013743;28;20235;-87
2021/10/19 11:22:43;;;;;;;8.70;7.80;;;;;;;22.54;37.26;100347.91;4997839;28;20249;-90
2021/10/19 11:25:12;;;;;;;8.60;7.70;;;;;;;22.25;38.34;100349.69;4998005;28;20260;-88
2021/10/19 11:27:38;;;;;;;8.93;7.60;;;;;;;22.62;37.32;100350.06;4997534;28;20233;-89
2021/10/19 11:30:07;;;;;;;8.70;7.80;;;;;;;22.78;37.22;100354.34;4997388;28;20248;-87
2021/10/19 11:32:35;;;;;;;8.60;7.53;;;;;;;22.69;37.92;100336.91;4997902;28;20236;-89
2021/10/19 11:35:03;;;;;;;8.97;8.17;;;;;;;22.32;37.71;100337.38;4998158;28;20228;-88
2021/10/19 11:37:30;;;;;;;9.67;8.60;;;;;;;22.66;37.68;100328.47;5001322;28;20237;-89
2021/10/19 11:40:11;;;;;;;8.67;7.87;;;;;;;22.73;37.39;100329.81;5017192;28;20311;-87
2021/10/19 11:42:50;;;;;;;9.13;7.87;;;;;;;22.81;37.49;100321.03;5001476;28;20299;-87
2021/10/19 11:45:19;;;;;;;10.97;8.07;;;;;;;23.26;36.98;100327.22;5001442;28;20298;-89
2021/10/19 11:47:54;;;;;;;9.43;8.47;;;;;;;23.15;36.66;100331.97;5000923;28;20644;-89
2021/10/19 11:50:30;;;;;;;9.37;8.40;;;;;;;23.54;35.81;100326.47;5017017;28;20233;-89
2021/10/19 11:52:58;;;;;;;11.10;8.90;;;;;;;23.23;36.80;100327.81;5000444;28;20630;-88
2021/10/19 11:55:25;;;;;;;11.60;8.13;;;;;;;23.48;36.50;100308.47;4984606;28;20230;-84
2021/10/19 11:57:53;;;;;;;9.13;8.33;;;;;;;23.51;36.28;100302.44;5000614;28;20573;-89
2021/10/19 12:00:22;;;;;;;9.20;8.23;;;;;;;23.75;36.22;100302.44;4980850;28;20241;-89
2021/10/19 12:02:59;;;;;;;9.30;8.13;;;;;;;23.93;35.74;100295.41;4981489;28;20525;-89
2021/10/19 12:05:29;;;;;;;12.60;8.10;;;;;;;24.01;36.35;100292.03;4981200;28;20250;-88
2021/10/19 12:07:57;;;;;;;9.50;8.50;;;;;;;24.23;35.42;100300.53;4981168;28;20239;-88
2021/10/19 12:10:29;;;;;;;10.37;8.63;;;;;;;23.99;35.81;100283.28;4981376;28;20242;-89
2021/10/19 12:12:57;;;;;;;11.70;8.40;;;;;;;23.99;35.43;100286.03;4981306;28;20537;-88
2021/10/19 12:15:27;;;;;;;11.00;8.50;;;;;;;24.07;35.40;100279.91;4964950;28;20239;-88
2021/10/19 12:17:54;;;;;;;11.00;7.83;;;;;;;24.38;35.08;100283.09;4980877;28;20281;-87
2021/10/19 12:20:21;;;;;;;10.17;8.20;;;;;;;24.47;34.88;100273.91;4980771;28;20236;-88
2021/10/19 12:22:47;;;;;;;10.03;8.53;;;;;;;24.29;35.51;100262.97;4980779;28;20654;-88
2021/10/19 12:25:15;;;;;;;10.87;8.57;;;;;;;23.97;35.99;100260.88;4980783;28;20235;-88
2021/10/19 12:27:43;;;;;;;10.77;9.00;;;;;;;24.27;35.14;100248.72;4965093;28;20238;-88
2021/10/19 12:30:12;;;;;;;11.10;8.20;;;;;;;24.23;35.62;100253.16;4980563;28;20232;-88
2021/10/19 12:32:39;;;;;;;11.07;8.90;;;;;;;24.39;35.01;100265.56;4980955;28;20239;-88
2021/10/19 12:35:08;;;;;;;9.20;8.30;;;;;;;24.79;35.11;100266.88;4980705;28;20242;-86
2021/10/19 12:37:38;;;;;;;10.57;8.33;;;;;;;24.89;34.63;100255.78;4964651;28;20538;-89
2021/10/19 12:40:12;;;;;;;11.13;8.90;;;;;;;25.06;34.48;100263.44;4980010;28;20658;-89
2021/10/19 12:42:39;;;;;;;8.73;7.57;;;;;;;25.16;34.10;100272.31;4980746;28;20231;-88
2021/10/19 12:45:06;;;;;;;10.40;8.20;;;;;;;24.92;34.52;100260.66;4964780;28;20239;-87
2021/10/19 12:47:33;;;;;;;8.27;7.57;;;;;;;25.28;33.99;100253.47;4979957;28;20669;-87
2021/10/19 12:50:00;;;;;;;8.53;7.67;;;;;;;25.38;33.80;100250.50;4978783;28;20231;-86
2021/10/19 12:52:27;;;;;;;8.83;7.87;;;;;;;25.60;33.41;100257.28;4978261;28;20235;-83
2021/10/19 12:54:54;;;;;;;8.33;7.50;;;;;;;25.59;33.22;100251.00;4997974;28;20246;-85